Time;durP1;ratioP1;P1;durP2;ratioP2;P2;SDS_P1;SDS_P2;PMS_P1;PMS_P2;Temp;Humidity;BMP_temperature;BMP_pressure;BME280_temperature;BME280_humidity;BME280_pressure;Samples;Min_cycle;Max_cycle;Signal;HPM_P1;HPM_P2
2022/12/08 00:01:38;;;;;;;5.80;1.70;;;;;;;-0.59;98.17;98635.55;106011;1284;72993;-71
2022/12/08 00:04:26;;;;;;;5.20;1.80;;;;;;;-0.61;98.01;98633.37;106006;1282;68923;-72
2022/12/08 00:10:21;;;;;;;5.50;1.80;;;;;;;-0.64;97.80;98642.94;105903;1291;57183;-73
2022/12/08 00:13:29;;;;;;;6.30;1.90;;;;;;;-0.63;97.65;98646.07;106007;1291;60272;-73
2022/12/08 00:16:17;;;;;;;6.10;1.70;;;;;;;-0.68;97.51;98650.15;105757;1299;72020;-72
2022/12/08 00:19:04;;;;;;;6.40;1.90;;;;;;;-0.74;97.53;98648.86;105918;1287;68660;-73
2022/12/08 00:21:54;;;;;;;7.00;2.00;;;;;;;-0.79;97.40;98650.38;105581;1288;72647;-72
2022/12/08 00:24:46;;;;;;;6.00;2.10;;;;;;;-0.83;97.64;98655.15;105494;1287;57328;-71
2022/12/08 00:27:34;;;;;;;6.20;1.90;;;;;;;-0.88;97.96;98663.17;105585;1288;61205;-72
2022/12/08 00:30:22;;;;;;;6.40;1.70;;;;;;;-0.89;98.07;98667.45;105635;1295;73166;-71
2022/12/08 00:33:11;;;;;;;5.70;1.40;;;;;;;-0.90;98.08;98664.69;105665;1295;68648;-72
2022/12/08 00:36:08;;;;;;;6.00;1.60;;;;;;;-0.92;98.06;98661.86;105427;1292;72483;-72
2022/12/08 00:38:57;;;;;;;5.10;1.50;;;;;;;-0.95;97.82;98670.55;105537;1297;57157;-72
2022/12/08 00:44:53;;;;;;;5.50;1.90;;;;;;;-0.98;98.17;98682.55;105469;1297;72819;-72
2022/12/08 00:47:41;;;;;;;6.00;1.90;;;;;;;-0.96;98.36;98687.47;105504;1287;66467;-73
2022/12/08 00:50:29;;;;;;;5.30;1.70;;;;;;;-0.95;98.07;98685.88;105505;1290;72598;-74
2022/12/08 00:53:16;;;;;;;8.40;1.80;;;;;;;-0.95;98.00;98690.04;105734;1295;58476;-72
2022/12/08 00:56:04;;;;;;;5.00;1.50;;;;;;;-0.95;97.88;98691.08;105810;1290;59312;-72
2022/12/08 00:58:52;;;;;;;5.50;1.70;;;;;;;-0.96;97.61;98696.23;105829;1294;71673;-71
2022/12/08 01:01:44;;;;;;;5.00;1.70;;;;;;;-1.01;97.50;98697.17;105810;1290;67918;-72
2022/12/08 01:04:32;;;;;;;5.90;1.80;;;;;;;-1.06;97.41;98699.69;105735;1288;73588;-69
2022/12/08 01:07:20;;;;;;;5.60;1.70;;;;;;;-1.11;97.42;98703.58;105802;1286;58741;-73
2022/12/08 01:10:08;;;;;;;5.60;1.90;;;;;;;-1.15;97.37;98705.34;105734;1290;60277;-71
2022/12/08 01:12:57;;;;;;;5.90;1.90;;;;;;;-1.17;97.41;98702.84;105888;1290;73036;-71
2022/12/08 01:15:45;;;;;;;6.30;2.10;;;;;;;-1.21;97.48;98705.83;105638;1297;67835;-71
2022/12/08 01:18:34;;;;;;;6.20;1.80;;;;;;;-1.24;97.76;98705.63;105600;1300;73743;-72
2022/12/08 01:21:21;;;;;;;6.70;2.10;;;;;;;-1.27;97.91;98711.37;105896;1287;57336;-72
2022/12/08 01:24:18;;;;;;;6.70;1.80;;;;;;;-1.31;97.92;98713.48;105759;1291;59391;-73
2022/12/08 01:27:05;;;;;;;6.40;2.20;;;;;;;-1.34;98.19;98717.30;105729;1291;73038;-70
2022/12/08 01:29:54;;;;;;;5.70;2.10;;;;;;;-1.36;98.53;98720.88;104989;1281;1002460;-74
2022/12/08 01:32:43;;;;;;;5.90;2.00;;;;;;;-1.38;98.66;98719.54;105553;1292;72651;-72
2022/12/08 01:35:32;;;;;;;6.30;2.10;;;;;;;-1.38;99.04;98726.02;105666;1296;58758;-70
2022/12/08 01:38:21;;;;;;;7.20;2.20;;;;;;;-1.38;98.96;98724.78;105939;1291;58681;-70
2022/12/08 01:41:15;;;;;;;6.90;2.00;;;;;;;-1.41;98.97;98730.84;105911;1292;71666;-68
2022/12/08 01:44:07;;;;;;;5.80;2.10;;;;;;;-1.42;99.07;98735.27;105198;1294;1002356;-69
2022/12/08 01:46:55;;;;;;;6.60;2.00;;;;;;;-1.41;99.50;98736.77;105991;1291;72440;-70
2022/12/08 01:49:43;;;;;;;6.40;2.20;;;;;;;-1.38;99.69;98738.36;105890;1292;58521;-70
2022/12/08 01:52:49;;;;;;;6.70;2.30;;;;;;;-1.32;99.74;98741.39;106002;1284;60362;-70
2022/12/08 01:55:51;;;;;;;6.20;1.80;;;;;;;-1.28;99.73;98742.92;105881;1290;72996;-70
2022/12/08 01:58:47;;;;;;;8.20;2.40;;;;;;;-1.22;99.56;98747.46;105837;1294;66384;-71
2022/12/08 02:01:35;;;;;;;7.20;2.60;;;;;;;-1.15;99.36;98752.67;105803;1290;72693;-70
2022/12/08 02:04:23;;;;;;;7.50;2.30;;;;;;;-1.09;99.21;98752.05;106003;1284;58591;-71
2022/12/08 02:07:12;;;;;;;6.20;2.20;;;;;;;-1.04;98.89;98754.04;106029;1298;60220;-71
2022/12/08 02:10:02;;;;;;;6.60;2.50;;;;;;;-0.99;98.65;98754.34;105907;1287;73839;-70
2022/12/08 02:12:55;;;;;;;6.30;2.30;;;;;;;-0.94;98.56;98754.42;105157;1286;1002348;-71
2022/12/08 02:16:34;;;;;;;6.40;2.00;;;;;;;-0.90;98.42;98756.14;105891;1291;73669;-70
2022/12/08 02:20:05;;;;;;;5.80;2.10;;;;;;;-0.85;98.32;98755.54;105963;1284;59997;-70
2022/12/08 02:23:30;;;;;;;6.30;2.10;;;;;;;-0.84;97.81;98760.35;105920;1288;60474;-71
2022/12/08 02:26:55;;;;;;;6.40;2.30;;;;;;;-0.82;97.62;98758.70;105450;1297;74132;-70
2022/12/08 02:30:18;;;;;;;6.20;2.40;;;;;;;-0.82;97.39;98754.35;105489;1299;68889;-71
2022/12/08 02:33:44;;;;;;;5.90;2.10;;;;;;;-0.81;97.50;98752.55;105451;1297;73634;-71
2022/12/08 02:36:42;;;;;;;5.90;2.10;;;;;;;-0.81;97.32;98760.20;105473;1296;57639;-71
2022/12/08 02:40:11;;;;;;;6.30;2.20;;;;;;;-0.81;97.38;98764.05;105472;1289;61596;-70
2022/12/08 02:43:36;;;;;;;6.70;1.90;;;;;;;-0.83;97.17;98756.30;104747;1297;1002563;-70
2022/12/08 02:46:33;;;;;;;5.90;1.90;;;;;;;-0.84;96.82;98753.59;105358;1299;66803;-71
2022/12/08 02:49:20;;;;;;;5.90;2.00;;;;;;;-0.83;96.94;98757.69;105426;1293;72742;-70
2022/12/08 02:52:11;;;;;;;5.70;2.10;;;;;;;-0.81;96.95;98757.06;105501;1289;58505;-71
2022/12/08 02:55:07;;;;;;;5.90;2.10;;;;;;;-0.79;96.94;98759.04;105482;1291;61125;-71
2022/12/08 02:58:37;;;;;;;5.30;1.80;;;;;;;-0.79;96.88;98757.32;105496;1297;73015;-71
2022/12/08 03:01:28;;;;;;;6.20;2.40;;;;;;;-0.82;96.54;98765.47;105446;1300;67651;-69
2022/12/08 03:04:38;;;;;;;5.50;2.10;;;;;;;-0.83;96.44;98765.88;105914;1292;73867;-69
2022/12/08 03:07:36;;;;;;;5.40;1.70;;;;;;;-0.85;96.44;98768.40;105903;1291;58991;-71
2022/12/08 03:11:08;;;;;;;5.90;1.90;;;;;;;-0.85;96.30;98767.91;105130;1291;1002396;-70
2022/12/08 03:14:01;;;;;;;6.00;2.20;;;;;;;-0.89;96.37;98768.63;105382;1298;72809;-70
2022/12/08 03:16:57;;;;;;;5.00;1.70;;;;;;;-0.89;96.33;98764.95;105359;1298;68007;-69
2022/12/08 03:19:47;;;;;;;6.20;1.90;;;;;;;-0.92;96.33;98765.14;105345;1291;73675;-69
2022/12/08 03:22:38;;;;;;;5.80;2.00;;;;;;;-0.95;96.58;98763.15;105302;1299;58871;-71
2022/12/08 03:25:31;;;;;;;5.20;1.80;;;;;;;-0.96;96.57;98760.94;105355;1292;60200;-70
2022/12/08 03:28:19;;;;;;;5.10;1.90;;;;;;;-0.99;96.70;98759.23;105273;1292;74304;-70
2022/12/08 03:31:10;;;;;;;6.50;1.80;;;;;;;-1.03;96.95;98758.51;105358;1300;66873;-70
2022/12/08 03:34:01;;;;;;;5.20;1.70;;;;;;;-1.05;97.13;98761.59;105358;1292;72729;-69
2022/12/08 03:36:49;;;;;;;5.00;1.40;;;;;;;-1.07;97.29;98766.55;105313;1300;57415;-69
2022/12/08 03:39:37;;;;;;;5.10;1.60;;;;;;;-1.08;97.65;98765.94;105371;1299;59487;-70
2022/12/08 03:42:24;;;;;;;5.70;1.90;;;;;;;-1.09;98.10;98768.58;105412;1292;73340;-71
2022/12/08 03:45:12;;;;;;;5.40;1.70;;;;;;;-1.06;98.47;98778.02;105426;1300;66318;-70
2022/12/08 03:48:00;;;;;;;5.20;1.90;;;;;;;-1.04;98.80;98781.73;105354;1300;72741;-69
2022/12/08 03:50:48;;;;;;;4.80;1.50;;;;;;;-1.00;99.00;98782.06;105667;1291;59977;-70
2022/12/08 03:53:36;;;;;;;5.60;1.80;;;;;;;-0.98;99.33;98783.17;105954;1299;60239;-69
2022/12/08 03:56:33;;;;;;;5.70;2.00;;;;;;;-0.96;99.38;98781.17;106020;1284;73966;-70
2022/12/08 03:59:21;;;;;;;5.60;1.80;;;;;;;-0.92;99.50;98782.73;105761;1282;66336;-69
2022/12/08 04:02:08;;;;;;;6.60;1.90;;;;;;;-0.91;99.38;98782.46;105974;1291;72870;-69
2022/12/08 04:04:56;;;;;;;4.90;1.60;;;;;;;-0.90;99.29;98778.23;106015;1291;57203;-69
2022/12/08 04:07:44;;;;;;;5.70;1.80;;;;;;;-0.91;99.25;98778.99;105896;1290;61214;-70
2022/12/08 04:10:31;;;;;;;5.30;1.60;;;;;;;-0.90;99.44;98784.87;105992;1282;73952;-70
2022/12/08 04:13:19;;;;;;;5.80;1.90;;;;;;;-0.90;99.59;98793.23;106003;1290;67812;-69
2022/12/08 04:16:07;;;;;;;5.20;1.90;;;;;;;-0.90;99.73;98789.75;105987;1290;73892;-71
2022/12/08 04:18:55;;;;;;;6.70;1.80;;;;;;;-0.90;99.67;98789.72;105976;1289;59813;-70
2022/12/08 04:21:43;;;;;;;5.50;1.80;;;;;;;-0.89;99.41;98793.52;105991;1290;60620;-70
2022/12/08 04:24:31;;;;;;;5.60;1.90;;;;;;;-0.86;99.28;98789.90;105981;1292;72759;-70
2022/12/08 04:27:18;;;;;;;5.40;1.80;;;;;;;-0.82;99.45;98787.79;105988;1290;68961;-70
2022/12/08 04:30:07;;;;;;;6.00;2.00;;;;;;;-0.78;99.21;98793.85;105993;1291;71290;-69
2022/12/08 04:32:55;;;;;;;5.40;1.80;;;;;;;-0.75;99.07;98792.14;105943;1290;57213;-70
2022/12/08 04:35:43;;;;;;;5.50;1.60;;;;;;;-0.75;98.77;98791.92;105999;1282;59994;-70
2022/12/08 04:38:32;;;;;;;5.80;1.70;;;;;;;-0.76;98.55;98790.96;105986;1298;71972;-69
2022/12/08 04:41:20;;;;;;;5.80;1.70;;;;;;;-0.80;98.06;98799.34;105790;1287;66797;-70
2022/12/08 04:44:08;;;;;;;5.20;1.60;;;;;;;-0.84;98.19;98803.22;105896;1290;72699;-70
2022/12/08 04:46:55;;;;;;;5.30;1.60;;;;;;;-0.87;98.28;98797.08;105967;1291;59894;-69
2022/12/08 04:49:46;;;;;;;4.80;1.40;;;;;;;-0.88;98.15;98803.06;106008;1284;58656;-71
2022/12/08 04:52:35;;;;;;;5.30;1.60;;;;;;;-0.87;98.39;98803.19;106013;1290;71900;-70
2022/12/08 04:55:23;;;;;;;5.00;1.50;;;;;;;-0.85;98.30;98799.77;105871;1284;67838;-69
2022/12/08 04:58:16;;;;;;;4.90;1.40;;;;;;;-0.86;98.11;98798.77;105819;1292;72397;-73
2022/12/08 05:01:06;;;;;;;4.20;1.20;;;;;;;-0.86;98.47;98794.58;105447;1295;57341;-70
2022/12/08 05:03:53;;;;;;;5.00;1.50;;;;;;;-0.88;98.43;98792.27;105590;1297;59741;-70
2022/12/08 05:06:41;;;;;;;4.80;1.40;;;;;;;-0.89;98.39;98788.99;105618;1295;73145;-70
2022/12/08 05:09:29;;;;;;;6.50;1.70;;;;;;;-0.91;97.83;98793.81;105646;1295;66878;-70
2022/12/08 05:12:17;;;;;;;6.00;1.60;;;;;;;-0.96;97.34;98800.48;105617;1297;73678;-69
2022/12/08 05:15:06;;;;;;;5.80;1.70;;;;;;;-1.02;96.71;98801.87;105661;1297;60153;-74
2022/12/08 05:17:55;;;;;;;5.70;1.60;;;;;;;-1.10;96.26;98807.11;105619;1296;58678;-73
2022/12/08 05:20:43;;;;;;;5.50;1.60;;;;;;;-1.17;96.20;98811.63;105478;1299;71997;-74
2022/12/08 05:23:31;;;;;;;5.10;1.70;;;;;;;-1.25;96.06;98814.13;105511;1288;67558;-72
2022/12/08 05:26:19;;;;;;;5.80;1.90;;;;;;;-1.33;95.92;98819.23;105606;1292;74006;-71
2022/12/08 05:29:07;;;;;;;6.10;1.70;;;;;;;-1.40;96.02;98820.23;105603;1297;59559;-70
2022/12/08 05:31:54;;;;;;;5.50;1.80;;;;;;;-1.47;96.01;98821.46;105754;1291;60395;-71
2022/12/08 05:34:42;;;;;;;5.60;1.60;;;;;;;-1.54;96.02;98823.86;105929;1291;73269;-72
2022/12/08 05:37:30;;;;;;;5.60;1.70;;;;;;;-1.60;96.25;98821.55;105857;1286;69117;-71
2022/12/08 05:40:17;;;;;;;5.50;1.70;;;;;;;-1.65;96.48;98825.44;105978;1298;72324;-72
2022/12/08 05:43:06;;;;;;;6.10;1.70;;;;;;;-1.70;96.73;98827.74;105976;1291;57227;-71
2022/12/08 05:45:54;;;;;;;6.00;1.80;;;;;;;-1.76;96.84;98826.79;105972;1291;59034;-72
2022/12/08 05:48:42;;;;;;;5.10;1.70;;;;;;;-1.82;97.24;98830.58;105819;1292;186096;-74
2022/12/08 05:51:30;;;;;;;7.10;1.90;;;;;;;-1.85;97.43;98835.27;105231;1291;1002583;-70
2022/12/08 05:54:18;;;;;;;8.80;2.40;;;;;;;-1.86;97.94;98842.58;105977;1292;71307;-71
2022/12/08 05:57:05;;;;;;;7.10;2.00;;;;;;;-1.81;98.08;98848.46;105970;1292;58830;-69
2022/12/08 05:59:53;;;;;;;6.20;1.90;;;;;;;-1.75;98.59;98854.92;105969;1290;60116;-77
2022/12/08 06:02:41;;;;;;;7.40;1.90;;;;;;;-1.67;98.53;98858.94;105954;1290;74459;-70
2022/12/08 06:05:31;;;;;;;6.30;1.90;;;;;;;-1.59;98.39;98857.31;105974;1290;66715;-70
2022/12/08 06:08:19;;;;;;;6.80;1.50;;;;;;;-1.49;98.30;98858.42;105869;1292;71502;-70
2022/12/08 06:11:07;;;;;;;6.00;1.70;;;;;;;-1.44;97.69;98856.09;105967;1292;57223;-69
2022/12/08 06:13:56;;;;;;;5.20;1.60;;;;;;;-1.40;97.39;98860.77;106001;1290;58649;-70
2022/12/08 06:16:44;;;;;;;7.40;2.00;;;;;;;-1.35;97.39;98863.16;105784;1291;72749;-72
2022/12/08 06:19:32;;;;;;;6.20;1.90;;;;;;;-1.31;97.36;98864.55;105993;1290;67530;-72
2022/12/08 06:22:20;;;;;;;6.20;2.10;;;;;;;-1.28;97.34;98865.61;105976;1290;71676;-74
2022/12/08 06:25:09;;;;;;;5.50;1.80;;;;;;;-1.24;97.34;98871.33;105970;1283;57588;-73
2022/12/08 06:27:57;;;;;;;6.20;1.80;;;;;;;-1.22;97.25;98873.83;105861;1291;58756;-71
2022/12/08 06:30:44;;;;;;;6.20;2.00;;;;;;;-1.21;97.06;98877.80;105956;1288;73881;-71
2022/12/08 06:33:32;;;;;;;6.40;2.10;;;;;;;-1.20;97.05;98880.38;105903;1285;66417;-70
2022/12/08 06:36:24;;;;;;;6.10;1.90;;;;;;;-1.18;96.98;98881.68;105970;1291;72350;-72
2022/12/08 06:39:12;;;;;;;6.60;2.10;;;;;;;-1.18;96.85;98882.38;105126;1291;1002738;-71
2022/12/08 06:45:08;;;;;;;5.20;1.70;;;;;;;-1.22;96.53;98888.13;105954;1291;73868;-73
2022/12/08 06:47:55;;;;;;;6.10;2.40;;;;;;;-1.28;96.37;98888.77;105123;1292;1002468;-71
2022/12/08 06:50:44;;;;;;;6.90;2.20;;;;;;;-1.32;96.42;98886.33;105936;1290;72650;-71
2022/12/08 06:53:32;;;;;;;8.00;2.30;;;;;;;-1.36;96.25;98887.92;105853;1294;57731;-70
2022/12/08 06:56:21;;;;;;;8.50;2.70;;;;;;;-1.40;96.14;98890.52;105994;1291;60273;-71
2022/12/08 06:59:09;;;;;;;8.50;2.30;;;;;;;-1.42;96.40;98888.34;105988;1284;73809;-71
2022/12/08 07:01:57;;;;;;;7.40;2.60;;;;;;;-1.43;96.41;98891.90;105216;1284;1003003;-71
2022/12/08 07:04:45;;;;;;;8.20;2.90;;;;;;;-1.43;96.43;98894.50;105970;1291;72565;-71
2022/12/08 07:07:32;;;;;;;9.10;2.60;;;;;;;-1.43;96.14;98895.70;105964;1292;59842;-71
2022/12/08 07:10:20;;;;;;;6.70;2.20;;;;;;;-1.41;96.21;98904.34;105991;1290;59042;-71
2022/12/08 07:13:08;;;;;;;8.60;2.20;;;;;;;-1.40;95.98;98907.92;105951;1291;74023;-72
2022/12/08 07:15:56;;;;;;;7.40;2.50;;;;;;;-1.38;95.92;98918.10;105977;1290;68825;-72
2022/12/08 07:18:43;;;;;;;7.70;2.50;;;;;;;-1.36;95.71;98921.50;105838;1284;72798;-72
2022/12/08 07:21:31;;;;;;;7.30;2.40;;;;;;;-1.32;95.18;98925.01;105973;1292;57303;-74
2022/12/08 07:24:19;;;;;;;13.40;3.60;;;;;;;-1.32;94.34;98931.08;105777;1292;57750;-71
2022/12/08 07:27:07;;;;;;;10.90;3.50;;;;;;;-1.32;93.97;98938.90;105956;1282;74381;-70
2022/12/08 07:29:55;;;;;;;7.30;2.30;;;;;;;-1.37;93.37;98939.98;105970;1290;67775;-70
2022/12/08 07:32:42;;;;;;;7.80;2.60;;;;;;;-1.37;93.51;98941.38;105211;1292;1002870;-70
2022/12/08 07:35:30;;;;;;;9.20;2.80;;;;;;;-1.40;93.05;98947.25;105912;1292;59587;-71
2022/12/08 07:38:21;;;;;;;7.70;2.40;;;;;;;-1.43;92.37;98944.97;105961;1287;61184;-70
2022/12/08 07:41:18;;;;;;;8.00;2.80;;;;;;;-1.47;91.93;98948.98;105984;1291;71790;-68
2022/12/08 07:44:05;;;;;;;8.20;2.30;;;;;;;-1.45;92.44;98946.27;105881;1291;66393;-70
2022/12/08 07:46:53;;;;;;;6.50;2.50;;;;;;;-1.39;91.87;98950.70;105969;1290;71293;-73
2022/12/08 07:49:41;;;;;;;10.60;3.50;;;;;;;-1.35;91.57;98949.63;105951;1292;59555;-69
2022/12/08 07:52:28;;;;;;;15.90;3.90;;;;;;;-1.30;91.34;98949.58;105982;1291;59159;-71
2022/12/08 07:55:16;;;;;;;11.00;3.90;;;;;;;-1.26;91.36;98948.85;105975;1290;73088;-71
2022/12/08 07:58:05;;;;;;;9.90;3.60;;;;;;;-1.21;90.92;98948.83;105986;1291;68638;-70
2022/12/08 08:00:53;;;;;;;8.40;3.00;;;;;;;-1.22;90.28;98947.45;105974;1291;70055;-72
2022/12/08 08:03:41;;;;;;;8.30;2.80;;;;;;;-1.24;89.71;98948.27;105949;1284;59614;-70
2022/12/08 08:06:31;;;;;;;7.40;2.80;;;;;;;-1.21;90.12;98952.11;105232;1295;1002335;-73
2022/12/08 08:09:18;;;;;;;10.30;3.00;;;;;;;-1.17;89.53;98957.32;105972;1291;73311;-69
2022/12/08 08:12:07;;;;;;;8.40;3.40;;;;;;;-1.06;89.07;98957.86;105903;1290;65554;-70
2022/12/08 08:15:16;;;;;;;7.90;2.70;;;;;;;-0.90;88.17;98962.33;105970;1298;72149;-70
2022/12/08 08:18:04;;;;;;;10.20;3.30;;;;;;;-0.59;87.66;98963.27;105106;1292;1002383;-70
2022/12/08 08:20:52;;;;;;;9.70;3.90;;;;;;;-0.30;86.14;98963.06;105203;1284;1002281;-69
2022/12/08 08:23:40;;;;;;;12.80;4.50;;;;;;;-0.32;86.18;98969.96;105846;1295;71771;-71
2022/12/08 08:26:27;;;;;;;14.10;4.70;;;;;;;-0.40;86.40;98975.02;105968;1292;68892;-72
2022/12/08 08:29:15;;;;;;;10.70;3.90;;;;;;;-0.46;86.28;98980.73;105241;1298;1015157;-70
2022/12/08 08:32:03;;;;;;;10.60;3.50;;;;;;;-0.52;86.30;98982.59;105971;1292;57243;-69
2022/12/08 08:34:51;;;;;;;11.20;4.10;;;;;;;-0.56;86.79;98985.07;105978;1297;60038;-69
2022/12/08 08:37:39;;;;;;;12.00;3.80;;;;;;;-0.62;86.96;98989.56;105962;1298;73892;-70
2022/12/08 08:40:34;;;;;;;12.90;4.80;;;;;;;-0.70;86.77;98991.83;105992;1292;66424;-70
2022/12/08 08:43:27;;;;;;;11.90;4.50;;;;;;;-0.74;87.00;98998.46;105833;1290;71283;-73
2022/12/08 08:46:24;;;;;;;9.40;3.70;;;;;;;-0.75;87.47;99011.08;105988;1291;57298;-70
2022/12/08 08:49:12;;;;;;;10.70;4.00;;;;;;;-0.71;87.45;99019.23;105907;1292;61087;-72
2022/12/08 08:52:00;;;;;;;11.60;3.60;;;;;;;-0.70;87.03;99020.40;105982;1292;74552;-71
2022/12/08 08:54:47;;;;;;;10.50;4.10;;;;;;;-0.76;87.02;99026.95;105906;1290;67711;-69
2022/12/08 08:57:35;;;;;;;11.70;4.10;;;;;;;-0.76;87.07;99023.85;105969;1292;71514;-69
2022/12/08 09:00:23;;;;;;;12.00;4.50;;;;;;;-0.74;86.81;99030.36;105989;1292;58526;-68
2022/12/08 09:03:11;;;;;;;10.90;3.90;;;;;;;-0.70;86.81;99029.48;105279;1291;1002080;-70
2022/12/08 09:06:00;;;;;;;14.40;4.30;;;;;;;-0.66;86.39;99028.79;105978;1290;73192;-69
2022/12/08 09:08:48;;;;;;;11.70;3.90;;;;;;;-0.62;85.81;99028.55;105906;1294;67977;-68
2022/12/08 09:11:37;;;;;;;10.10;3.50;;;;;;;-0.59;85.73;99038.88;106007;1288;71503;-69
2022/12/08 09:14:24;;;;;;;10.00;3.70;;;;;;;-0.67;85.30;99035.27;105982;1291;59843;-68
2022/12/08 09:17:12;;;;;;;10.90;3.80;;;;;;;-0.76;85.91;99036.22;105995;1292;60058;-69
2022/12/08 09:20:00;;;;;;;10.30;3.80;;;;;;;-0.79;86.27;99034.10;105922;1298;71380;-68
2022/12/08 09:22:48;;;;;;;8.40;3.60;;;;;;;-0.86;86.58;99031.61;106033;1290;67617;-69
2022/12/08 09:25:36;;;;;;;8.80;3.60;;;;;;;-0.98;86.71;99025.91;105989;1290;72867;-69
2022/12/08 09:28:24;;;;;;;9.60;3.30;;;;;;;-1.05;87.07;99022.26;106009;1291;57168;-70
2022/12/08 09:31:13;;;;;;;8.20;4.00;;;;;;;-1.06;87.35;99016.52;105997;1295;58628;-67
2022/12/08 09:34:03;;;;;;;9.80;3.00;;;;;;;-1.03;87.37;99018.14;105966;1292;74051;-68
2022/12/08 09:36:51;;;;;;;9.10;3.20;;;;;;;-0.99;87.04;99014.15;106015;1290;68902;-68
2022/12/08 09:39:38;;;;;;;8.40;3.30;;;;;;;-0.91;86.92;99009.75;105926;1291;73901;-69
2022/12/08 09:43:10;;;;;;;8.80;3.10;;;;;;;-0.77;86.94;99004.55;105992;1289;57280;-68
2022/12/08 09:45:58;;;;;;;10.40;4.00;;;;;;;-0.76;85.64;99004.49;105456;1304;60027;-69
2022/12/08 09:48:56;;;;;;;10.00;3.50;;;;;;;-0.72;85.73;99007.45;105337;1306;74720;-69
2022/12/08 09:51:47;;;;;;;9.80;4.10;;;;;;;-0.81;85.47;99003.17;105312;1299;68999;-68
2022/12/08 09:54:35;;;;;;;9.50;3.90;;;;;;;-0.75;85.79;98999.23;105412;1298;72536;-70
2022/12/08 09:57:23;;;;;;;10.60;3.60;;;;;;;-0.63;85.55;98997.81;105378;1304;57931;-71
2022/12/08 10:00:13;;;;;;;11.90;4.20;;;;;;;-0.41;85.23;98996.17;105274;1300;61731;-70
2022/12/08 10:03:00;;;;;;;11.00;4.30;;;;;;;0.02;83.18;98988.98;105374;1303;71665;-68
2022/12/08 10:06:20;;;;;;;12.60;4.70;;;;;;;-0.01;82.51;98988.95;105391;1303;66695;-71
2022/12/08 10:09:17;;;;;;;13.60;4.80;;;;;;;-0.10;82.40;98994.11;105338;1299;72871;-71
2022/12/08 10:12:18;;;;;;;10.50;4.20;;;;;;;-0.07;83.09;98995.88;105365;1304;57992;-72
2022/12/08 10:15:31;;;;;;;11.10;4.30;;;;;;;0.02;82.47;98988.77;105413;1296;60033;-71
2022/12/08 10:18:32;;;;;;;10.60;3.70;;;;;;;0.29;82.10;98987.39;105393;1298;73045;-71
2022/12/08 10:21:24;;;;;;;9.40;4.00;;;;;;;0.58;80.47;98982.20;105498;1295;68790;-70
2022/12/08 10:24:38;;;;;;;11.40;4.60;;;;;;;0.91;79.65;98987.77;105883;1296;73612;-69
2022/12/08 10:27:26;;;;;;;12.00;4.90;;;;;;;1.40;79.12;98986.42;105791;1295;57987;-71
2022/12/08 10:30:18;;;;;;;9.80;4.00;;;;;;;1.51;77.06;98982.66;106007;1292;60371;-70
2022/12/08 10:33:13;;;;;;;15.00;5.50;;;;;;;1.15;76.15;98984.51;105887;1292;74125;-69
2022/12/08 10:36:03;;;;;;;11.20;4.90;;;;;;;0.78;77.22;98976.23;105769;1295;67683;-71
2022/12/08 10:38:51;;;;;;;15.00;5.80;;;;;;;0.53;78.24;98972.88;105852;1290;72732;-70
2022/12/08 10:41:39;;;;;;;15.00;5.10;;;;;;;0.43;79.37;98972.55;105862;1293;57249;-68
2022/12/08 10:44:27;;;;;;;15.40;6.00;;;;;;;0.38;79.97;98971.24;105865;1290;60058;-70
2022/12/08 10:47:19;;;;;;;12.50;5.70;;;;;;;0.39;79.92;98973.65;105035;1287;1002623;-71
2022/12/08 10:50:54;;;;;;;14.10;6.40;;;;;;;0.49;80.00;98976.08;105803;1298;66402;-71
2022/12/08 10:53:45;;;;;;;16.00;6.90;;;;;;;0.65;79.59;98970.66;105245;1295;72647;-70
2022/12/08 10:56:33;;;;;;;15.30;7.00;;;;;;;0.64;79.21;98976.09;105290;1299;57306;-71
2022/12/08 10:59:24;;;;;;;12.70;6.20;;;;;;;0.55;78.78;98978.85;105238;1298;61167;-72
2022/12/08 11:02:19;;;;;;;14.10;6.00;;;;;;;0.38;79.22;98985.19;105218;1298;73879;-70
2022/12/08 11:05:15;;;;;;;20.80;7.00;;;;;;;0.28;80.12;98970.16;105306;1298;66686;-68
2022/12/08 11:08:04;;;;;;;16.90;6.30;;;;;;;0.27;80.50;98963.77;105250;1294;72762;-72
2022/12/08 11:10:52;;;;;;;13.50;5.70;;;;;;;0.30;80.14;98970.25;105259;1299;57704;-70
2022/12/08 11:13:41;;;;;;;12.00;5.30;;;;;;;0.24;79.90;98972.14;104564;1298;1003143;-72
2022/12/08 11:16:28;;;;;;;12.90;4.80;;;;;;;0.25;80.14;98971.21;105203;1302;72913;-70
2022/12/08 11:19:18;;;;;;;15.10;5.80;;;;;;;0.29;79.79;98967.66;105288;1306;67684;-69
2022/12/08 11:22:51;;;;;;;13.60;5.50;;;;;;;0.33;80.11;98962.92;105175;1307;73573;-69
2022/12/08 11:25:39;;;;;;;15.00;6.10;;;;;;;0.45;80.56;98955.33;104718;1312;58186;-69
2022/12/08 11:28:28;;;;;;;16.90;6.40;;;;;;;0.55;80.79;98948.19;104621;1301;61639;-72
2022/12/08 11:31:43;;;;;;;14.20;6.10;;;;;;;0.62;80.36;98947.57;105065;1305;73213;-71
2022/12/08 11:34:44;;;;;;;16.00;6.40;;;;;;;0.62;79.59;98950.23;105217;1292;66873;-70
2022/12/08 11:37:39;;;;;;;15.00;6.80;;;;;;;0.52;79.24;98944.34;105258;1298;71798;-73
2022/12/08 11:40:36;;;;;;;19.70;6.70;;;;;;;0.47;79.65;98940.73;105196;1306;58470;-69
2022/12/08 11:43:54;;;;;;;16.80;6.70;;;;;;;0.45;79.80;98940.81;105216;1306;60379;-70
2022/12/08 11:47:09;;;;;;;14.20;5.50;;;;;;;0.40;79.88;98934.50;105281;1298;73995;-70
2022/12/08 11:50:16;;;;;;;13.90;6.20;;;;;;;0.29;79.84;98941.52;105288;1298;65747;-70
2022/12/08 11:53:17;;;;;;;15.10;6.20;;;;;;;0.21;80.37;98944.59;105261;1302;73482;-69
2022/12/08 11:56:16;;;;;;;12.90;5.50;;;;;;;0.19;80.89;98944.30;105216;1298;59035;-69
2022/12/08 11:59:33;;;;;;;16.40;6.60;;;;;;;0.18;81.51;98945.45;105288;1300;62070;-69
2022/12/08 12:02:27;;;;;;;16.70;6.60;;;;;;;0.15;81.17;98947.83;105676;1295;73368;-72
2022/12/08 12:05:39;;;;;;;15.00;6.00;;;;;;;0.14;81.44;98942.30;105984;1292;66121;-70
2022/12/08 12:09:16;;;;;;;15.20;5.80;;;;;;;0.11;81.35;98934.81;105957;1292;73708;-69
2022/12/08 12:12:15;;;;;;;24.50;6.70;;;;;;;0.06;81.63;98932.05;105901;1292;57218;-69
2022/12/08 12:15:50;;;;;;;15.50;5.80;;;;;;;-0.11;81.05;98936.60;105885;1284;60412;-71
2022/12/08 12:18:50;;;;;;;12.50;4.60;;;;;;;-0.24;81.56;98930.85;105875;1290;73637;-73
2022/12/08 12:21:44;;;;;;;11.80;5.40;;;;;;;-0.37;82.53;98932.71;105991;1292;69299;-70
2022/12/08 12:24:37;;;;;;;13.60;4.90;;;;;;;-0.44;83.28;98931.52;105232;1291;1002393;-72
2022/12/08 12:27:35;;;;;;;11.50;4.80;;;;;;;-0.56;83.56;98931.58;105960;1298;57952;-74
2022/12/08 12:30:26;;;;;;;22.90;6.60;;;;;;;-0.59;84.45;98926.48;105881;1292;61381;-72
2022/12/08 12:33:16;;;;;;;12.80;5.90;;;;;;;-0.58;84.77;98925.58;105955;1290;71810;-71
2022/12/08 12:36:08;;;;;;;14.30;5.70;;;;;;;-0.55;85.18;98925.23;105895;1291;67390;-72
2022/12/08 12:39:03;;;;;;;16.70;6.20;;;;;;;-0.51;85.31;98922.95;105977;1290;71610;-72
2022/12/08 12:42:00;;;;;;;15.00;6.30;;;;;;;-0.42;85.66;98922.71;105970;1292;58404;-73
2022/12/08 12:45:11;;;;;;;14.70;5.20;;;;;;;-0.32;85.81;98919.23;105952;1292;61327;-72
2022/12/08 12:47:58;;;;;;;17.40;6.30;;;;;;;-0.28;85.44;98918.15;105917;1292;72585;-73
2022/12/08 12:50:49;;;;;;;16.80;7.00;;;;;;;-0.30;85.51;98916.34;105968;1287;68023;-73
2022/12/08 12:53:36;;;;;;;13.90;5.60;;;;;;;-0.35;85.59;98918.66;105757;1298;72318;-73
2022/12/08 12:57:09;;;;;;;15.60;6.80;;;;;;;-0.39;86.06;98914.15;105127;1290;1002424;-71
2022/12/08 12:59:59;;;;;;;17.20;7.50;;;;;;;-0.44;86.60;98924.03;105970;1298;58766;-70
2022/12/08 13:02:49;;;;;;;15.90;6.70;;;;;;;-0.48;87.26;98920.56;105980;1287;73878;-71
2022/12/08 13:05:51;;;;;;;14.20;5.90;;;;;;;-0.49;87.41;98918.15;105981;1290;67935;-71
2022/12/08 13:08:49;;;;;;;14.00;5.30;;;;;;;-0.54;87.67;98915.60;105886;1297;73977;-72
2022/12/08 13:11:54;;;;;;;12.40;5.10;;;;;;;-0.64;87.68;98910.21;105791;1295;57272;-72
2022/12/08 13:14:50;;;;;;;12.70;5.60;;;;;;;-0.71;88.17;98910.86;105779;1287;59361;-71
2022/12/08 13:17:43;;;;;;;10.30;5.00;;;;;;;-0.76;88.44;98908.89;105779;1294;71377;-71
2022/12/08 13:20:44;;;;;;;13.70;6.10;;;;;;;-0.86;88.57;98913.17;105888;1292;67541;-72
2022/12/08 13:23:35;;;;;;;11.40;4.70;;;;;;;-0.88;88.74;98913.63;105900;1292;71523;-72
2022/12/08 13:26:25;;;;;;;15.40;6.10;;;;;;;-0.93;88.96;98917.02;105947;1291;59594;-72
2022/12/08 13:29:24;;;;;;;18.50;7.10;;;;;;;-0.97;89.06;98917.41;105891;1290;59037;-71
2022/12/08 13:32:12;;;;;;;15.70;6.70;;;;;;;-1.00;89.41;98915.62;105888;1289;72819;-73